Time;durP1;ratioP1;P1;durP2;ratioP2;P2;SDS_P1;SDS_P2;PMS_P1;PMS_P2;Temp;Humidity;BMP_temperature;BMP_pressure;BME280_temperature;BME280_humidity;BME280_pressure;Samples;Min_cycle;Max_cycle;Signal;HPM_P1;HPM_P2
2021/12/25 00:00:17;;;;;;;6.90;5.67;;;9.80;99.90;;;;;;5095505;28;20498;-55
2021/12/25 00:02:45;;;;;;;7.83;7.13;;;9.80;99.90;;;;;;5095333;28;20442;-55
2021/12/25 00:05:13;;;;;;;6.60;6.00;;;9.80;99.90;;;;;;5095589;28;20869;-57
2021/12/25 00:07:40;;;;;;;10.03;6.30;;;10.00;99.90;;;;;;5095342;28;20475;-55
2021/12/25 00:10:09;;;;;;;6.87;6.20;;;9.90;99.90;;;;;;5095031;28;20459;-58
2021/12/25 00:12:36;;;;;;;6.80;6.17;;;10.00;99.90;;;;;;5095434;28;20427;-55
2021/12/25 00:15:05;;;;;;;6.33;5.70;;;10.10;99.90;;;;;;5095130;28;20459;-55
2021/12/25 00:17:34;;;;;;;8.90;6.50;;;10.00;99.90;;;;;;5095291;28;20461;-57
2021/12/25 00:20:01;;;;;;;9.27;5.97;;;10.00;99.90;;;;;;5094993;28;20490;-55
2021/12/25 00:22:29;;;;;;;8.37;6.50;;;10.00;99.90;;;;;;5094962;28;20443;-55
2021/12/25 00:24:56;;;;;;;8.03;7.20;;;10.00;99.90;;;;;;5094872;28;20428;-55
2021/12/25 00:27:40;;;;;;;7.20;6.20;;;9.90;99.90;;;;;;5095152;28;20451;-55
2021/12/25 00:30:21;;;;;;;6.70;5.93;;;9.90;99.90;;;;;;5094896;28;20562;-55
2021/12/25 00:32:58;;;;;;;9.00;6.80;;;9.80;99.90;;;;;;5095268;28;20851;-55
2021/12/25 00:35:25;;;;;;;6.60;6.00;;;9.80;99.90;;;;;;5094764;28;20435;-55
2021/12/25 00:37:52;;;;;;;7.57;6.87;;;10.00;99.90;;;;;;5094758;28;20414;-55
2021/12/25 00:40:19;;;;;;;6.83;5.33;;;9.70;99.90;;;;;;5094393;28;20557;-55
2021/12/25 00:42:46;;;;;;;7.20;6.30;;;9.60;99.90;;;;;;5094041;28;20447;-55
2021/12/25 00:45:14;;;;;;;8.20;7.40;;;9.60;99.90;;;;;;5094624;28;20452;-55
2021/12/25 00:47:42;;;;;;;8.57;6.97;;;9.70;99.90;;;;;;5094644;28;20543;-55
2021/12/25 00:50:11;;;;;;;8.50;6.60;;;9.80;99.90;;;;;;5094655;28;20471;-55
2021/12/25 00:52:38;;;;;;;7.10;6.40;;;9.60;99.90;;;;;;5094211;28;20454;-55
2021/12/25 00:55:07;;;;;;;9.00;7.73;;;9.60;99.90;;;;;;5094487;28;20443;-55
2021/12/25 00:57:36;;;;;;;7.63;6.77;;;9.60;99.90;;;;;;5094686;28;20447;-55
2021/12/25 01:00:09;;;;;;;8.50;6.50;;;9.60;99.90;;;;;;5094038;28;20487;-55
2021/12/25 01:02:37;;;;;;;7.77;6.97;;;9.70;99.90;;;;;;5094682;28;20546;-55
2021/12/25 01:05:05;;;;;;;7.73;6.80;;;9.80;99.90;;;;;;5094023;28;20459;-55
2021/12/25 01:07:34;;;;;;;9.97;6.80;;;9.80;99.90;;;;;;5093078;28;20497;-56
2021/12/25 01:10:03;;;;;;;6.90;6.30;;;9.80;99.90;;;;;;5094031;28;20460;-55
2021/12/25 01:12:40;;;;;;;7.20;6.50;;;9.80;99.90;;;;;;5094242;28;20473;-55
2021/12/25 01:15:10;;;;;;;11.63;6.27;;;9.90;99.90;;;;;;5094191;28;20431;-55
2021/12/25 01:31:21;;;;;;;7.10;6.50;;;9.50;99.90;;;;;;5093892;28;20537;-55
2021/12/25 01:39:22;;;;;;;6.80;6.20;;;9.70;99.90;;;;;;5091405;28;20471;-55
2021/12/25 01:42:07;;;;;;;8.23;7.20;;;9.60;99.90;;;;;;5093695;28;20482;-55
2021/12/25 01:50:08;;;;;;;9.97;8.97;;;9.60;99.90;;;;;;5093376;28;20577;-55
2021/12/25 01:52:35;;;;;;;8.67;7.80;;;9.60;99.90;;;;;;5093582;28;20424;-56
2021/12/25 01:55:08;;;;;;;10.37;9.07;;;9.50;99.90;;;;;;5093754;28;20454;-56
2021/12/25 01:57:35;;;;;;;8.97;8.17;;;9.50;99.90;;;;;;5093753;28;20436;-56
2021/12/25 02:00:04;;;;;;;10.97;9.87;;;9.60;99.90;;;;;;5093430;28;20487;-56
2021/12/25 02:02:31;;;;;;;9.10;8.20;;;9.60;99.90;;;;;;5093727;28;21017;-56
2021/12/25 02:04:59;;;;;;;14.57;8.93;;;9.50;99.90;;;;;;5093254;28;20432;-55
2021/12/25 02:07:26;;;;;;;10.17;9.17;;;9.60;99.90;;;;;;5093332;28;20460;-56
2021/12/25 02:09:53;;;;;;;13.87;11.17;;;9.60;99.90;;;;;;5093583;28;20443;-55
2021/12/25 02:12:22;;;;;;;11.73;9.70;;;9.50;99.90;;;;;;5093354;28;20877;-56
2021/12/25 02:14:51;;;;;;;10.80;9.63;;;9.50;99.90;;;;;;5092927;28;20455;-56
2021/12/25 02:17:24;;;;;;;11.70;10.50;;;9.50;99.90;;;;;;5093181;28;20451;-56
2021/12/25 02:20:12;;;;;;;12.40;8.17;;;9.50;99.90;;;;;;5093339;28;20471;-56
2021/12/25 02:22:39;;;;;;;10.47;9.00;;;9.50;99.90;;;;;;5093452;28;20419;-56
2021/12/25 02:25:07;;;;;;;10.90;8.60;;;9.50;99.90;;;;;;5092964;28;20435;-56
2021/12/25 02:27:34;;;;;;;19.33;11.00;;;9.60;99.90;;;;;;5092930;28;20496;-56
2021/12/25 02:30:01;;;;;;;11.97;10.80;;;9.70;99.90;;;;;;5092940;28;20465;-56
2021/12/25 02:32:28;;;;;;;16.27;10.40;;;9.50;99.90;;;;;;5092844;28;20439;-55
2021/12/25 02:34:56;;;;;;;11.60;10.03;;;9.60;99.90;;;;;;5093108;28;20457;-55
2021/12/25 02:37:24;;;;;;;12.17;9.90;;;9.60;99.90;;;;;;5092987;28;20459;-56
2021/12/25 02:39:53;;;;;;;12.87;10.70;;;9.60;99.90;;;;;;5092801;28;20479;-56
2021/12/25 02:42:21;;;;;;;12.27;10.27;;;9.70;99.90;;;;;;5092821;28;20447;-56
2021/12/25 02:44:48;;;;;;;11.13;9.97;;;9.70;99.90;;;;;;5093242;28;20516;-56
2021/12/25 02:47:20;;;;;;;12.70;11.33;;;9.60;99.90;;;;;;5092918;28;20424;-56
2021/12/25 02:49:51;;;;;;;9.67;8.67;;;9.50;99.90;;;;;;5092878;28;20463;-56
2021/12/25 02:52:19;;;;;;;13.27;11.17;;;9.60;99.90;;;;;;5092884;28;20953;-56
2021/12/25 02:54:48;;;;;;;14.00;10.83;;;9.50;99.90;;;;;;5092843;28;20538;-55
2021/12/25 02:57:15;;;;;;;11.17;9.67;;;9.50;99.90;;;;;;5093012;28;20527;-56
2021/12/25 02:59:42;;;;;;;9.30;8.30;;;9.50;99.90;;;;;;5092856;28;20490;-56
2021/12/25 03:02:12;;;;;;;10.53;9.53;;;9.50;99.90;;;;;;5093119;28;20450;-56
2021/12/25 03:04:42;;;;;;;9.50;8.27;;;9.50;99.90;;;;;;5093836;28;20447;-56
2021/12/25 03:07:10;;;;;;;9.53;7.60;;;9.50;99.90;;;;;;5096882;28;20447;-55
2021/12/25 03:09:38;;;;;;;10.43;8.63;;;9.50;99.90;;;;;;5096299;28;20451;-56
2021/12/25 03:12:09;;;;;;;8.90;8.00;;;9.50;99.90;;;;;;5096713;28;20554;-56
2021/12/25 03:14:40;;;;;;;9.03;8.13;;;9.50;99.90;;;;;;5096301;28;20485;-56
2021/12/25 03:17:07;;;;;;;9.97;7.00;;;9.50;99.90;;;;;;5096569;28;20428;-56
2021/12/25 03:19:35;;;;;;;8.73;7.53;;;9.50;99.90;;;;;;5096182;28;20498;-56
2021/12/25 03:22:04;;;;;;;8.70;7.80;;;9.60;99.90;;;;;;5096442;28;20839;-56
2021/12/25 03:24:31;;;;;;;10.10;8.60;;;9.60;99.90;;;;;;5096302;28;20447;-56
2021/12/25 03:26:58;;;;;;;8.70;7.47;;;9.50;99.90;;;;;;5096407;28;20451;-56
2021/12/25 03:29:27;;;;;;;10.03;8.63;;;9.50;99.90;;;;;;5096325;28;20443;-56
2021/12/25 03:31:55;;;;;;;10.50;8.63;;;9.60;99.90;;;;;;5096116;28;20467;-56
2021/12/25 03:34:22;;;;;;;8.87;7.53;;;9.50;99.90;;;;;;5096312;28;20452;-56
2021/12/25 03:36:49;;;;;;;8.40;7.17;;;9.50;99.90;;;;;;5095840;28;20935;-56
2021/12/25 03:39:16;;;;;;;7.90;7.17;;;9.60;99.90;;;;;;5095993;28;20447;-56
2021/12/25 03:41:43;;;;;;;8.03;6.90;;;9.60;99.90;;;;;;5095742;28;20966;-56
2021/12/25 03:44:11;;;;;;;7.20;6.50;;;9.60;99.90;;;;;;5095797;28;20934;-56
2021/12/25 03:46:40;;;;;;;7.53;6.77;;;9.50;99.90;;;;;;5095708;28;20828;-56
2021/12/25 03:49:25;;;;;;;5.20;4.70;;;9.60;99.90;;;;;;5095541;28;21014;-55
2021/12/25 03:57:40;;;;;;;7.03;5.47;;;9.70;99.90;;;;;;5095582;28;20556;-56
2021/12/25 04:00:09;;;;;;;5.83;5.23;;;9.70;99.90;;;;;;5095308;28;21031;-56
2021/12/25 04:02:50;;;;;;;5.23;4.73;;;9.60;99.90;;;;;;5095822;28;20881;-56
2021/12/25 04:05:19;;;;;;;4.63;4.23;;;9.70;99.90;;;;;;5095628;28;20467;-56
2021/12/25 04:08:05;;;;;;;4.10;3.67;;;9.80;99.90;;;;;;5095287;28;20483;-56
2021/12/25 04:10:35;;;;;;;3.80;3.40;;;9.90;99.90;;;;;;5095144;28;20505;-56
2021/12/25 04:13:03;;;;;;;4.27;3.10;;;9.80;99.90;;;;;;5095178;28;20895;-56
2021/12/25 04:15:31;;;;;;;5.57;3.60;;;9.80;99.90;;;;;;5095502;28;20815;-56
2021/12/25 04:17:59;;;;;;;5.20;4.53;;;9.80;99.90;;;;;;5095292;28;20454;-56
2021/12/25 04:20:27;;;;;;;4.03;3.67;;;9.80;99.90;;;;;;5094831;28;20487;-56
2021/12/25 04:22:58;;;;;;;4.73;4.20;;;9.70;99.90;;;;;;5095058;28;20543;-55
2021/12/25 04:25:28;;;;;;;4.23;3.80;;;9.60;99.90;;;;;;5095237;28;20424;-56
2021/12/25 04:28:01;;;;;;;4.63;4.03;;;9.60;99.90;;;;;;5095361;28;20447;-56
2021/12/25 04:30:37;;;;;;;5.43;3.80;;;9.60;99.90;;;;;;5094780;28;20895;-56
2021/12/25 04:42:33;;;;;;;4.73;4.33;;;9.70;99.90;;;;;;5095087;28;20435;-56
2021/12/25 04:50:23;;;;;;;5.70;3.83;;;9.40;99.90;;;;;;5094493;28;20522;-56
2021/12/25 05:03:54;;;;;;;3.90;3.53;;;9.40;99.90;;;;;;5094261;28;20453;-56
2021/12/25 05:06:23;;;;;;;3.33;3.03;;;9.50;99.90;;;;;;5094265;28;20485;-56
2021/12/25 05:08:51;;;;;;;4.07;3.77;;;9.50;99.90;;;;;;5093864;28;20471;-56
2021/12/25 05:11:19;;;;;;;3.90;3.60;;;9.50;99.90;;;;;;5094138;28;20992;-56
2021/12/25 05:13:49;;;;;;;3.23;2.90;;;9.40;99.90;;;;;;5093908;28;20447;-56
2021/12/25 05:16:21;;;;;;;4.13;3.70;;;9.40;99.90;;;;;;5094201;28;20431;-55
2021/12/25 05:18:50;;;;;;;3.63;3.33;;;9.40;99.90;;;;;;5094347;28;20464;-56
2021/12/25 05:21:18;;;;;;;3.80;3.40;;;9.40;99.90;;;;;;5094033;28;20843;-55
2021/12/25 05:23:48;;;;;;;3.40;3.03;;;9.60;99.90;;;;;;5094055;28;20458;-56
2021/12/25 05:26:16;;;;;;;4.73;3.00;;;9.70;99.90;;;;;;5094011;28;20454;-55
2021/12/25 05:28:45;;;;;;;3.23;2.90;;;9.60;99.90;;;;;;5093663;28;20447;-56
2021/12/25 05:31:14;;;;;;;3.00;2.63;;;9.60;99.90;;;;;;5093879;28;20520;-56
2021/12/25 05:33:43;;;;;;;3.63;2.57;;;9.70;99.90;;;;;;5093919;28;20444;-56
2021/12/25 05:36:11;;;;;;;5.57;3.17;;;9.60;99.90;;;;;;5093752;28;20554;-56
2021/12/25 05:38:38;;;;;;;3.23;2.87;;;9.80;99.90;;;;;;5093589;28;20439;-56
2021/12/25 05:41:07;;;;;;;3.30;3.00;;;9.80;99.90;;;;;;5093676;28;20570;-55
2021/12/25 05:43:34;;;;;;;3.00;2.80;;;9.70;99.90;;;;;;5094134;28;20795;-55
2021/12/25 05:46:01;;;;;;;2.67;2.40;;;9.70;99.90;;;;;;5093411;28;20968;-55
2021/12/25 05:48:29;;;;;;;3.10;2.80;;;9.70;99.90;;;;;;5093415;28;20462;-55
2021/12/25 05:50:56;;;;;;;3.37;3.07;;;9.70;99.90;;;;;;5093785;28;20460;-56
2021/12/25 05:53:23;;;;;;;3.13;2.83;;;9.70;99.90;;;;;;5093659;28;20925;-56
2021/12/25 05:55:50;;;;;;;4.17;3.77;;;9.70;99.90;;;;;;5093540;28;20806;-56
2021/12/25 05:58:18;;;;;;;3.57;3.30;;;9.70;99.90;;;;;;5093764;28;20530;-56
2021/12/25 06:00:46;;;;;;;4.83;4.37;;;9.60;99.90;;;;;;5093347;28;20482;-56
2021/12/25 06:03:13;;;;;;;5.23;4.43;;;9.70;99.90;;;;;;5093248;28;20451;-56
2021/12/25 06:05:40;;;;;;;4.17;3.77;;;9.60;99.90;;;;;;5093705;28;20455;-56
2021/12/25 06:08:07;;;;;;;4.70;4.27;;;9.60;99.90;;;;;;5093482;28;20459;-57
2021/12/25 06:10:34;;;;;;;5.73;3.70;;;9.70;99.90;;;;;;5093098;28;20471;-56
2021/12/25 06:13:03;;;;;;;5.10;4.63;;;9.80;99.90;;;;;;5093439;28;20439;-56
2021/12/25 06:15:32;;;;;;;4.90;4.50;;;9.70;99.90;;;;;;5093514;28;20858;-56
2021/12/25 06:17:59;;;;;;;5.83;3.83;;;9.70;99.90;;;;;;5093418;28;20470;-56
2021/12/25 06:20:26;;;;;;;5.53;5.03;;;9.60;99.90;;;;;;5092882;28;20483;-55
2021/12/25 06:22:53;;;;;;;4.43;4.03;;;9.70;99.90;;;;;;5093080;28;20799;-56
2021/12/25 06:25:20;;;;;;;10.03;4.20;;;9.70;99.90;;;;;;5093249;28;20448;-56
2021/12/25 06:27:48;;;;;;;4.50;4.10;;;9.50;99.90;;;;;;5093019;28;20832;-56
2021/12/25 06:30:15;;;;;;;4.40;3.80;;;9.50;99.90;;;;;;5093107;28;20974;-56
2021/12/25 06:32:43;;;;;;;4.83;4.03;;;9.60;99.90;;;;;;5092957;28;20950;-56
2021/12/25 06:35:12;;;;;;;4.60;3.60;;;9.50;99.90;;;;;;5093079;28;20538;-56
2021/12/25 06:37:40;;;;;;;5.53;4.33;;;9.40;99.90;;;;;;5093089;28;20435;-56
2021/12/25 06:40:10;;;;;;;3.77;3.47;;;9.40;99.90;;;;;;5094719;28;20459;-56
2021/12/25 06:42:37;;;;;;;4.20;3.70;;;9.50;99.90;;;;;;5096971;28;20961;-56
2021/12/25 06:45:05;;;;;;;3.77;3.47;;;9.50;99.90;;;;;;5097142;28;20530;-56
2021/12/25 06:47:32;;;;;;;3.87;3.47;;;9.60;99.90;;;;;;5097111;28;20449;-56
2021/12/25 06:50:01;;;;;;;5.20;3.73;;;9.60;99.90;;;;;;5097182;28;20474;-56
2021/12/25 06:52:28;;;;;;;4.37;3.90;;;9.60;99.90;;;;;;5097017;28;20447;-56
2021/12/25 06:54:55;;;;;;;5.10;4.33;;;9.70;99.90;;;;;;5097052;28;20466;-56
2021/12/25 06:57:22;;;;;;;4.27;3.67;;;9.80;99.90;;;;;;5097082;28;20450;-56
2021/12/25 06:59:49;;;;;;;6.00;4.30;;;9.90;99.90;;;;;;5096751;28;20443;-56
2021/12/25 07:02:16;;;;;;;4.50;4.10;;;9.90;99.90;;;;;;5096572;28;20486;-56
2021/12/25 07:04:44;;;;;;;5.03;4.63;;;9.80;99.90;;;;;;5096721;28;20443;-56
2021/12/25 07:07:13;;;;;;;5.60;4.60;;;9.80;99.90;;;;;;5097031;28;20481;-55
2021/12/25 07:09:41;;;;;;;4.60;3.60;;;9.80;99.90;;;;;;5096417;28;20487;-56
2021/12/25 07:12:09;;;;;;;4.07;3.73;;;9.80;99.90;;;;;;5096359;28;20446;-56
2021/12/25 07:14:36;;;;;;;5.23;4.57;;;9.80;99.90;;;;;;5096231;28;20930;-56
2021/12/25 07:17:03;;;;;;;4.63;4.17;;;9.80;99.90;;;;;;5096745;28;20450;-56
2021/12/25 07:19:30;;;;;;;5.97;4.63;;;9.80;99.90;;;;;;5096108;28;20945;-56
2021/12/25 07:21:57;;;;;;;5.17;4.33;;;9.90;99.90;;;;;;5096314;28;20856;-56
2021/12/25 07:24:26;;;;;;;6.43;4.80;;;9.80;99.90;;;;;;5096246;28;20447;-56
2021/12/25 07:26:53;;;;;;;4.37;3.97;;;9.80;99.90;;;;;;5096382;28;20485;-56
2021/12/25 07:29:20;;;;;;;6.57;5.03;;;9.80;99.90;;;;;;5095985;28;20439;-56
2021/12/25 07:31:49;;;;;;;5.57;5.00;;;9.80;99.90;;;;;;5096109;28;21033;-56
2021/12/25 07:34:16;;;;;;;6.00;4.40;;;9.80;99.90;;;;;;5096032;28;20863;-56
2021/12/25 07:36:43;;;;;;;5.77;4.87;;;9.90;99.90;;;;;;5095877;28;20451;-56
2021/12/25 07:39:10;;;;;;;5.63;4.00;;;9.90;99.90;;;;;;5096173;28;20443;-56
2021/12/25 07:41:39;;;;;;;4.33;3.93;;;9.90;99.90;;;;;;5095847;28;20479;-56
2021/12/25 07:44:06;;;;;;;4.40;3.90;;;9.90;99.90;;;;;;5095810;28;20926;-56
2021/12/25 07:46:33;;;;;;;4.63;4.13;;;9.90;99.90;;;;;;5095958;28;20448;-56
2021/12/25 07:49:05;;;;;;;4.80;4.03;;;9.80;99.90;;;;;;5095717;28;20447;-57
2021/12/25 07:51:32;;;;;;;5.73;3.80;;;9.80;99.90;;;;;;5095076;28;20463;-56
2021/12/25 07:53:59;;;;;;;4.03;3.63;;;9.80;99.90;;;;;;5095522;28;20443;-56
2021/12/25 07:56:26;;;;;;;4.30;3.90;;;9.90;99.90;;;;;;5095909;28;20518;-56
2021/12/25 07:58:55;;;;;;;4.17;3.63;;;9.90;99.90;;;;;;5095432;28;20449;-56
2021/12/25 08:01:22;;;;;;;3.93;3.63;;;9.90;99.90;;;;;;5095596;28;20846;-56
2021/12/25 08:03:49;;;;;;;4.00;3.60;;;9.90;99.90;;;;;;5095425;28;20892;-56
2021/12/25 08:06:17;;;;;;;6.37;4.20;;;9.90;99.90;;;;;;5095154;28;20487;-56
2021/12/25 08:08:44;;;;;;;3.97;3.63;;;10.00;99.90;;;;;;5095104;28;20475;-56
2021/12/25 08:11:13;;;;;;;4.30;3.90;;;10.10;99.90;;;;;;5095583;28;20499;-57
2021/12/25 08:13:41;;;;;;;8.17;4.10;;;9.90;99.90;;;;;;5095536;28;20444;-56
2021/12/25 08:16:09;;;;;;;4.60;4.20;;;10.00;99.90;;;;;;5095160;28;20514;-56
2021/12/25 08:18:36;;;;;;;4.70;3.50;;;9.90;99.90;;;;;;5095308;28;20448;-56
2021/12/25 08:21:04;;;;;;;7.03;3.43;;;9.80;99.90;;;;;;5095273;28;20529;-56
2021/12/25 08:23:32;;;;;;;7.80;3.40;;;9.90;99.90;;;;;;5094896;28;20458;-56
2021/12/25 08:25:59;;;;;;;5.17;3.80;;;9.90;99.90;;;;;;5095181;28;20546;-56
2021/12/25 08:28:26;;;;;;;4.47;3.80;;;10.00;99.90;;;;;;5095253;28;20447;-56
2021/12/25 08:30:54;;;;;;;4.60;3.87;;;10.10;99.90;;;;;;5095004;28;20474;-57
2021/12/25 08:33:22;;;;;;;3.67;3.37;;;10.10;99.90;;;;;;5094719;28;20452;-56
2021/12/25 08:35:50;;;;;;;4.20;3.90;;;10.20;99.90;;;;;;5094948;28;20459;-56
2021/12/25 08:38:17;;;;;;;3.60;3.30;;;10.30;99.90;;;;;;5094919;28;20454;-56
2021/12/25 08:40:44;;;;;;;3.37;3.07;;;10.40;99.90;;;;;;5094782;28;20459;-56
2021/12/25 08:43:14;;;;;;;4.37;3.77;;;10.40;99.90;;;;;;5095021;28;20866;-57
2021/12/25 08:45:44;;;;;;;4.07;3.67;;;10.20;99.90;;;;;;5094499;28;20948;-56
2021/12/25 08:48:14;;;;;;;4.77;4.27;;;10.30;99.90;;;;;;5094420;28;20518;-56
2021/12/25 08:50:46;;;;;;;4.57;4.03;;;10.40;99.90;;;;;;5094320;28;20486;-56
2021/12/25 08:53:13;;;;;;;6.50;3.83;;;10.30;99.90;;;;;;5094510;28;20428;-56
2021/12/25 08:55:40;;;;;;;4.40;4.00;;;10.30;99.90;;;;;;5094240;28;20440;-56
2021/12/25 08:58:07;;;;;;;3.83;3.43;;;10.30;99.90;;;;;;5094625;28;20455;-56
2021/12/25 09:00:35;;;;;;;5.17;4.50;;;10.40;99.90;;;;;;5094345;28;20950;-56
2021/12/25 09:03:02;;;;;;;4.70;3.77;;;10.30;99.90;;;;;;5093603;28;20483;-56
2021/12/25 09:05:29;;;;;;;6.40;4.30;;;10.20;99.90;;;;;;5093986;28;20447;-56
2021/12/25 09:07:58;;;;;;;4.70;4.30;;;10.30;99.90;;;;;;5094335;28;20482;-55
2021/12/25 09:10:28;;;;;;;4.30;3.90;;;10.30;99.90;;;;;;5093990;28;20501;-56
2021/12/25 09:12:55;;;;;;;4.67;4.27;;;10.40;99.90;;;;;;5093947;28;20962;-56
2021/12/25 09:15:22;;;;;;;5.57;4.60;;;10.40;99.90;;;;;;5094576;28;20475;-56
2021/12/25 09:17:49;;;;;;;4.10;3.70;;;10.50;99.90;;;;;;5094470;28;20453;-56
2021/12/25 09:20:18;;;;;;;6.10;4.17;;;10.50;99.90;;;;;;5094297;28;20550;-56
2021/12/25 09:22:46;;;;;;;4.43;3.87;;;10.60;99.90;;;;;;5093954;28;20471;-56
2021/12/25 09:25:15;;;;;;;4.50;4.10;;;10.50;99.90;;;;;;5094287;28;20454;-56
2021/12/25 09:27:43;;;;;;;4.37;3.97;;;10.50;99.90;;;;;;5094149;28;20447;-56
2021/12/25 09:30:12;;;;;;;4.57;4.10;;;10.60;99.90;;;;;;5093794;28;21093;-56
2021/12/25 09:32:39;;;;;;;7.07;4.63;;;10.50;99.90;;;;;;5094091;28;20811;-56
2021/12/25 09:35:07;;;;;;;4.63;3.47;;;10.60;99.90;;;;;;5094068;28;20448;-56
2021/12/25 09:37:35;;;;;;;3.20;2.77;;;10.60;99.90;;;;;;5093897;28;20458;-56
2021/12/25 09:40:04;;;;;;;3.57;3.00;;;10.40;99.90;;;;;;5093902;28;20472;-56
2021/12/25 09:42:34;;;;;;;2.70;2.50;;;10.40;99.90;;;;;;5093789;28;20506;-56
2021/12/25 09:45:02;;;;;;;4.00;2.53;;;10.40;99.90;;;;;;5093951;28;20459;-56
2021/12/25 09:47:30;;;;;;;2.60;2.40;;;10.50;99.90;;;;;;5093987;28;20446;-56
2021/12/25 09:49:57;;;;;;;2.80;2.43;;;10.60;99.90;;;;;;5093821;28;20471;-56
2021/12/25 09:52:24;;;;;;;2.50;2.30;;;10.60;99.90;;;;;;5093487;28;20427;-56
2021/12/25 09:54:51;;;;;;;3.10;2.63;;;10.60;99.90;;;;;;5093508;28;20815;-56
2021/12/25 09:57:19;;;;;;;2.57;2.37;;;10.60;99.90;;;;;;5093829;28;20449;-56
2021/12/25 09:59:48;;;;;;;2.90;2.70;;;10.60;99.90;;;;;;5093599;28;20494;-56
2021/12/25 10:02:17;;;;;;;2.53;2.33;;;10.70;99.90;;;;;;5093159;28;20479;-56
2021/12/25 10:04:46;;;;;;;2.73;2.50;;;10.70;99.90;;;;;;5093752;28;20451;-55
2021/12/25 10:07:26;;;;;;;4.23;2.57;;;10.80;99.90;;;;;;5093661;28;20546;-57
2021/12/25 10:09:59;;;;;;;2.17;1.73;;;10.80;99.90;;;;;;5092873;28;20475;-56
2021/12/25 10:12:34;;;;;;;1.90;1.80;;;10.80;99.90;;;;;;5093011;28;20428;-56
2021/12/25 10:15:05;;;;;;;3.07;1.97;;;10.80;99.90;;;;;;5098632;28;20441;-56
2021/12/25 10:17:33;;;;;;;2.57;2.37;;;10.70;99.90;;;;;;5100231;28;20500;-56
2021/12/25 10:20:11;;;;;;;1.90;1.80;;;10.60;99.90;;;;;;5099744;28;20965;-56
2021/12/25 10:22:59;;;;;;;4.03;2.27;;;10.60;99.90;;;;;;5099731;28;20463;-55
2021/12/25 10:25:32;;;;;;;2.77;1.90;;;10.70;99.90;;;;;;5100011;28;20462;-56
2021/12/25 10:28:01;;;;;;;2.43;1.80;;;10.80;99.90;;;;;;5099765;28;20461;-56
2021/12/25 10:30:31;;;;;;;2.50;1.70;;;10.80;99.90;;;;;;5099743;28;20825;-56
2021/12/25 10:32:58;;;;;;;1.70;1.60;;;10.80;99.90;;;;;;5099937;28;20435;-56
2021/12/25 10:35:28;;;;;;;2.40;2.20;;;10.90;99.90;;;;;;5099469;28;20451;-56
2021/12/25 10:37:56;;;;;;;3.83;1.93;;;11.10;99.90;;;;;;5099804;28;20413;-56
2021/12/25 10:40:26;;;;;;;2.00;1.70;;;;;;;;;;5099802;28;20880;-56
2021/12/25 10:42:55;;;;;;;1.57;1.47;;;11.20;99.90;;;;;;5099849;28;20467;-56
2021/12/25 10:45:26;;;;;;;2.33;2.13;;;11.30;99.90;;;;;;5099446;28;20453;-55
2021/12/25 10:48:07;;;;;;;1.97;1.77;;;11.20;99.90;;;;;;5099808;28;20431;-56
2021/12/25 10:50:37;;;;;;;2.43;2.23;;;11.30;99.90;;;;;;5099861;28;20470;-56
2021/12/25 10:53:21;;;;;;;1.53;1.43;;;11.30;99.90;;;;;;5099640;28;20443;-56
2021/12/25 10:55:48;;;;;;;2.63;2.43;;;11.10;99.90;;;;;;5099390;28;20459;-55
2021/12/25 10:58:19;;;;;;;2.00;1.90;;;11.30;99.90;;;;;;5099389;28;20449;-56
2021/12/25 11:00:51;;;;;;;5.13;2.00;;;11.20;99.90;;;;;;5099383;28;20953;-55
2021/12/25 11:03:27;;;;;;;1.93;1.77;;;11.40;99.90;;;;;;5099712;28;20470;-56
2021/12/25 11:05:55;;;;;;;2.10;1.60;;;11.50;99.90;;;;;;5099289;28;20815;-56
2021/12/25 11:08:23;;;;;;;1.50;1.40;;;11.50;99.90;;;;;;5099294;28;20482;-55
2021/12/25 11:10:53;;;;;;;1.73;1.57;;;11.60;99.90;;;;;;5099612;28;20520;-56
2021/12/25 11:13:22;;;;;;;1.80;1.70;;;11.70;99.90;;;;;;5099734;28;20530;-56
2021/12/25 11:15:53;;;;;;;2.03;1.83;;;11.60;99.90;;;;;;5099181;28;20534;-56
2021/12/25 11:18:21;;;;;;;1.47;1.37;;;11.60;99.90;;;;;;5099848;28;20447;-56
2021/12/25 11:20:48;;;;;;;2.00;1.90;;;11.40;99.90;;;;;;5099238;28;20467;-56
2021/12/25 11:23:16;;;;;;;2.00;1.80;;;11.40;99.90;;;;;;5099084;28;20485;-56
2021/12/25 11:25:45;;;;;;;2.53;1.60;;;11.40;99.90;;;;;;5096860;28;20451;-56
2021/12/25 11:28:14;;;;;;;1.70;1.60;;;11.50;99.90;;;;;;5096147;28;20435;-56
2021/12/25 11:30:44;;;;;;;2.00;1.80;;;11.80;99.90;;;;;;5096194;28;20470;-56
2021/12/25 11:33:12;;;;;;;2.73;2.00;;;11.80;99.90;;;;;;5095890;28;20458;-56
2021/12/25 11:35:41;;;;;;;2.73;1.43;;;11.70;99.90;;;;;;5095902;28;20451;-56
2021/12/25 11:38:10;;;;;;;2.53;2.00;;;11.70;99.90;;;;;;5096317;28;20432;-56
2021/12/25 11:40:45;;;;;;;2.53;2.10;;;11.80;99.90;;;;;;5095686;28;20463;-56
2021/12/25 11:43:13;;;;;;;4.30;2.10;;;11.70;99.90;;;;;;5095645;28;20469;-56
2021/12/25 11:45:42;;;;;;;2.10;2.00;;;11.80;99.90;;;;;;5096064;28;20868;-56
2021/12/25 11:48:17;;;;;;;2.00;1.80;;;11.60;99.90;;;;;;5095895;28;20447;-56
2021/12/25 11:50:48;;;;;;;2.40;2.20;;;11.60;99.90;;;;;;5095351;28;20553;-56
2021/12/25 11:53:22;;;;;;;2.53;2.23;;;11.50;99.90;;;;;;5095463;28;20985;-56
2021/12/25 11:58:52;;;;;;;1.87;1.77;;;11.50;99.90;;;;;;5091850;28;20424;-56
2021/12/25 12:01:23;;;;;;;2.10;1.90;;;11.20;99.90;;;;;;5095364;28;20973;-56
2021/12/25 12:03:54;;;;;;;1.60;1.50;;;11.10;99.90;;;;;;5095636;28;20541;-56
2021/12/25 12:06:56;;;;;;;2.00;1.70;;;11.10;99.90;;;;;;5095151;28;20930;-56
2021/12/25 12:09:25;;;;;;;2.80;2.03;;;11.20;99.90;;;;;;5095049;28;20977;-56
2021/12/25 12:12:09;;;;;;;2.33;2.13;;;11.20;99.90;;;;;;5095038;28;20474;-56
2021/12/25 12:14:37;;;;;;;2.30;1.80;;;11.20;99.90;;;;;;5095288;28;20438;-56
2021/12/25 12:17:07;;;;;;;1.73;1.63;;;11.20;99.90;;;;;;5095274;28;20447;-56
2021/12/25 12:19:48;;;;;;;2.30;1.90;;;11.20;99.90;;;;;;5095350;28;20428;-56
2021/12/25 12:22:51;;;;;;;2.70;2.10;;;11.10;99.90;;;;;;5095172;28;20478;-56
2021/12/25 12:25:27;;;;;;;2.90;2.60;;;11.10;99.90;;;;;;5095100;28;20433;-56
2021/12/25 12:27:57;;;;;;;3.23;1.90;;;11.20;99.90;;;;;;5095367;28;20450;-56
2021/12/25 12:30:52;;;;;;;1.70;1.60;;;11.10;99.90;;;;;;5094672;28;20478;-56
2021/12/25 12:33:34;;;;;;;2.07;1.80;;;11.30;99.90;;;;;;5059667;28;20447;-56
2021/12/25 12:36:01;;;;;;;2.40;2.20;;;11.20;99.90;;;;;;5094589;28;20542;-56
2021/12/25 12:38:39;;;;;;;2.10;1.90;;;11.30;99.90;;;;;;5093331;28;20454;-56
2021/12/25 12:41:18;;;;;;;2.20;2.00;;;11.20;99.90;;;;;;5094490;28;20853;-56
2021/12/25 12:44:10;;;;;;;3.93;1.83;;;11.30;99.90;;;;;;5094611;28;20499;-56
2021/12/25 12:47:07;;;;;;;2.40;2.20;;;11.30;99.90;;;;;;5094700;28;20431;-56
2021/12/25 12:49:55;;;;;;;2.10;2.00;;;11.30;99.90;;;;;;5094698;28;20434;-56
2021/12/25 12:52:26;;;;;;;1.93;1.83;;;11.20;99.90;;;;;;5094442;28;20430;-56
2021/12/25 12:54:57;;;;;;;2.30;2.07;;;11.20;99.90;;;;;;5094268;28;20514;-56
2021/12/25 12:57:28;;;;;;;2.77;2.23;;;11.10;99.90;;;;;;5094092;28;20447;-57
2021/12/25 12:59:57;;;;;;;2.60;2.40;;;11.20;99.90;;;;;;5094267;28;20503;-57
2021/12/25 13:02:27;;;;;;;2.80;2.53;;;11.10;99.90;;;;;;5094376;28;20484;-56
2021/12/25 13:04:58;;;;;;;2.60;2.40;;;11.10;99.90;;;;;;5094307;28;20450;-57
2021/12/25 13:07:27;;;;;;;2.20;2.00;;;11.10;99.90;;;;;;5094021;28;20551;-57
2021/12/25 13:10:14;;;;;;;3.27;1.87;;;11.10;99.90;;;;;;5093948;28;20487;-56
2021/12/25 13:12:44;;;;;;;3.57;2.87;;;11.10;99.90;;;;;;5094028;28;20917;-57
2021/12/25 13:15:15;;;;;;;2.97;2.77;;;11.10;99.90;;;;;;5094230;28;20428;-56
2021/12/25 13:17:52;;;;;;;2.77;2.57;;;11.10;99.90;;;;;;5093910;28;20492;-57
2021/12/25 13:20:31;;;;;;;2.60;2.40;;;11.10;99.90;;;;;;5093884;28;20459;-57
2021/12/25 13:23:00;;;;;;;2.53;2.33;;;11.00;99.90;;;;;;5094013;28;20467;-56
2021/12/25 13:25:29;;;;;;;4.80;2.80;;;11.10;99.90;;;;;;5094127;28;20444;-56
2021/12/25 13:27:58;;;;;;;4.47;3.03;;;11.10;99.90;;;;;;5093604;28;20448;-56
2021/12/25 13:30:27;;;;;;;3.83;2.73;;;11.00;99.90;;;;;;5093533;28;20521;-56
2021/12/25 13:32:54;;;;;;;3.73;3.40;;;10.80;99.90;;;;;;5093909;28;20466;-56
2021/12/25 13:35:24;;;;;;;4.10;3.30;;;10.90;99.90;;;;;;5093348;28;20447;-57
2021/12/25 13:37:59;;;;;;;3.53;3.23;;;10.70;99.90;;;;;;5093866;28;20447;-57
2021/12/25 13:40:26;;;;;;;3.73;3.40;;;10.70;99.90;;;;;;5093407;28;20553;-56
2021/12/25 13:42:56;;;;;;;3.00;2.60;;;10.70;99.90;;;;;;5093437;28;20475;-56
2021/12/25 13:45:23;;;;;;;7.77;3.77;;;10.50;99.90;;;;;;5093680;28;20457;-56
2021/12/25 13:47:56;;;;;;;3.40;3.10;;;10.50;99.90;;;;;;5093500;28;20480;-57
2021/12/25 13:50:23;;;;;;;3.67;3.33;;;10.30;99.90;;;;;;5093456;28;20464;-57
2021/12/25 13:52:54;;;;;;;3.20;2.97;;;10.30;99.90;;;;;;5093486;28;20440;-57
2021/12/25 13:55:23;;;;;;;3.87;3.20;;;10.30;99.90;;;;;;5093179;28;20434;-57
2021/12/25 13:57:53;;;;;;;3.80;3.50;;;10.30;99.90;;;;;;5093112;28;20444;-56
2021/12/25 14:00:25;;;;;;;2.93;2.73;;;10.30;99.90;;;;;;5093556;28;20470;-57
2021/12/25 14:02:54;;;;;;;3.60;3.30;;;10.30;99.90;;;;;;5093104;28;20558;-56